Time;durP1;ratioP1;P1;durP2;ratioP2;P2;SDS_P1;SDS_P2;PMS_P1;PMS_P2;Temp;Humidity;BMP_temperature;BMP_pressure;BME280_temperature;BME280_humidity;BME280_pressure;Samples;Min_cycle;Max_cycle;Signal;HPM_P1;HPM_P2
2023/05/29 00:00:08;;;;;;;;;;;;;;;18.58;72.88;99185.66;5051380;28;19944;-75
2023/05/29 00:02:34;;;;;;;;;;;;;;;18.57;73.42;99189.38;5051334;28;19916;-75
2023/05/29 00:05:02;;;;;;;;;;;;;;;18.56;73.44;99182.41;5051064;28;20390;-76
2023/05/29 00:07:28;;;;;;;;;;;;;;;18.55;72.33;99180.78;5054266;28;19996;-76
2023/05/29 00:09:53;;;;;;;;;;;;;;;18.52;72.46;99181.28;5054836;28;19944;-75
2023/05/29 00:12:19;;;;;;;;;;;;;;;18.46;73.31;99183.03;5054804;28;20406;-75
2023/05/29 00:14:44;;;;;;;;;;;;;;;18.48;73.28;99180.13;5054697;28;19919;-76
2023/05/29 00:17:12;;;;;;;;;;;;;;;18.50;72.67;99175.34;5054531;28;19912;-76
2023/05/29 00:19:37;;;;;;;;;;;;;;;18.52;71.53;99179.41;5054702;28;19908;-75
2023/05/29 00:22:03;;;;;;;;;;;;;;;18.51;73.17;99185.00;5054634;28;20003;-76
2023/05/29 00:24:28;;;;;;;;;;;;;;;18.53;72.70;99175.69;5054722;28;20420;-75
2023/05/29 00:26:53;;;;;;;;;;;;;;;18.54;73.24;99182.66;5054404;28;19957;-76
2023/05/29 00:29:21;;;;;;;;;;;;;;;18.54;73.68;99184.53;5054210;28;19924;-75
2023/05/29 00:31:46;;;;;;;;;;;;;;;18.52;73.16;99182.09;5054306;28;19966;-76
2023/05/29 00:34:11;;;;;;;;;;;;;;;18.53;73.00;99178.34;5053222;28;19912;-75
2023/05/29 00:36:36;;;;;;;;;;;;;;;18.53;72.63;99183.72;5054537;28;19909;-75
2023/05/29 00:39:02;;;;;;;;;;;;;;;18.53;72.28;99189.06;5054497;28;20033;-76
2023/05/29 00:41:27;;;;;;;;;;;;;;;18.52;72.88;99183.94;5054240;28;20301;-76
2023/05/29 00:43:53;;;;;;;;;;;;;;;18.54;73.38;99184.53;5054372;28;19912;-76
2023/05/29 00:46:20;;;;;;;;;;;;;;;18.52;73.72;99183.94;5054078;28;19913;-75
2023/05/29 00:48:45;;;;;;;;;;;;;;;18.50;74.31;99183.38;5054084;28;19963;-76
2023/05/29 00:51:12;;;;;;;;;;;;;;;18.47;72.67;99182.00;5054202;28;19948;-76
2023/05/29 00:53:38;;;;;;;;;;;;;;;18.46;73.45;99183.03;5053919;28;20078;-75
2023/05/29 00:56:04;;;;;;;;;;;;;;;18.43;72.95;99183.50;5054056;28;19908;-76
2023/05/29 00:58:29;;;;;;;;;;;;;;;18.39;72.50;99182.38;5052853;28;20276;-76
2023/05/29 01:00:55;;;;;;;;;;;;;;;18.39;72.71;99180.50;5054206;28;19962;-76
2023/05/29 01:03:22;;;;;;;;;;;;;;;18.39;73.03;99180.50;5053964;28;19966;-75
2023/05/29 01:05:48;;;;;;;;;;;;;;;18.40;72.81;99173.28;5053589;28;19915;-75
2023/05/29 01:08:13;;;;;;;;;;;;;;;18.40;73.85;99182.13;5053570;28;19909;-76
2023/05/29 01:10:38;;;;;;;;;;;;;;;18.39;74.23;99182.38;5052064;28;19919;-76
2023/05/29 01:13:08;;;;;;;;;;;;;;;18.43;73.66;99180.84;5053423;28;19948;-76
2023/05/29 01:15:51;;;;;;;;;;;;;;;18.45;74.08;99172.59;5052831;28;20352;-76
2023/05/29 01:18:19;;;;;;;;;;;;;;;18.43;73.30;99178.97;5052759;28;20445;-76
2023/05/29 01:20:48;;;;;;;;;;;;;;;18.42;72.96;99181.88;5051869;28;19916;-76
2023/05/29 01:23:32;;;;;;;;;;;;;;;18.43;73.27;99175.50;5053219;28;19912;-75
2023/05/29 01:26:01;;;;;;;;;;;;;;;18.45;72.39;99178.75;5053386;28;19909;-77
2023/05/29 01:28:29;;;;;;;;;;;;;;;18.42;73.20;99177.34;5053064;28;19916;-75
2023/05/29 01:30:56;;;;;;;;;;;;;;;18.44;72.74;99182.47;5053044;28;19920;-75
2023/05/29 01:33:22;;;;;;;;;;;;;;;18.45;73.39;99176.06;5053043;28;19965;-75
2023/05/29 01:35:47;;;;;;;;;;;;;;;18.47;73.43;99178.50;5052935;28;19908;-76
2023/05/29 01:38:12;;;;;;;;;;;;;;;18.49;72.92;99171.06;5053079;28;19909;-75
2023/05/29 01:40:38;;;;;;;;;;;;;;;18.43;72.88;99172.81;5053168;28;20042;-75
2023/05/29 01:43:03;;;;;;;;;;;;;;;18.42;72.27;99166.66;5053464;28;19916;-75
2023/05/29 01:45:29;;;;;;;;;;;;;;;18.40;73.31;99167.94;5051908;28;19980;-75
2023/05/29 01:47:55;;;;;;;;;;;;;;;18.39;73.18;99167.13;5052846;28;19995;-75
2023/05/29 01:50:23;;;;;;;;;;;;;;;18.39;72.51;99167.13;5053088;28;19908;-75
2023/05/29 01:52:48;;;;;;;;;;;;;;;18.39;72.57;99166.31;5052842;28;19923;-75
2023/05/29 01:55:13;;;;;;;;;;;;;;;18.37;72.75;99168.44;5053149;28;19909;-76
2023/05/29 01:57:39;;;;;;;;;;;;;;;18.35;73.00;99174.00;5052955;28;19964;-76
2023/05/29 02:00:08;;;;;;;;;;;;;;;18.36;72.91;99172.97;5052865;28;19995;-76
2023/05/29 02:02:37;;;;;;;;;;;;;;;18.40;72.97;99175.97;5052912;28;19916;-75
2023/05/29 02:05:03;;;;;;;;;;;;;;;18.42;72.12;99172.00;5052730;28;19909;-75
2023/05/29 02:07:28;;;;;;;;;;;;;;;18.42;72.39;99177.34;5052699;28;19908;-75
2023/05/29 02:09:53;;;;;;;;;;;;;;;18.40;71.95;99163.41;5052975;28;20383;-75
2023/05/29 02:12:19;;;;;;;;;;;;;;;18.36;73.14;99169.47;5052548;28;19985;-75
2023/05/29 02:14:44;;;;;;;;;;;;;;;18.36;72.16;99170.28;5052626;28;20313;-75
2023/05/29 02:17:09;;;;;;;;;;;;;;;18.32;73.01;99169.13;5051241;28;20400;-75
2023/05/29 02:19:36;;;;;;;;;;;;;;;18.34;72.19;99168.91;5052415;28;20050;-75
2023/05/29 02:22:01;;;;;;;;;;;;;;;18.33;72.91;99178.78;5052439;28;19909;-75
2023/05/29 02:24:27;;;;;;;;;;;;;;;18.37;72.40;99171.09;5052261;28;19916;-75
2023/05/29 02:26:52;;;;;;;;;;;;;;;18.33;72.48;99178.78;5052007;28;19987;-75
2023/05/29 02:29:18;;;;;;;;;;;;;;;18.34;72.40;99179.59;5051878;28;19986;-75
2023/05/29 02:31:44;;;;;;;;;;;;;;;18.33;72.93;99181.44;5052119;28;19913;-75
2023/05/29 02:34:09;;;;;;;;;;;;;;;18.31;73.14;99178.19;5052058;28;20305;-75
2023/05/29 02:36:37;;;;;;;;;;;;;;;18.33;72.79;99184.13;5050585;28;19959;-75
2023/05/29 02:39:02;;;;;;;;;;;;;;;18.32;73.11;99182.50;5050499;28;19916;-76
2023/05/29 02:41:28;;;;;;;;;;;;;;;18.35;72.70;99186.56;5051900;28;19909;-76
2023/05/29 02:43:53;;;;;;;;;;;;;;;18.36;72.55;99189.00;5051829;28;19913;-76
2023/05/29 02:46:18;;;;;;;;;;;;;;;18.35;72.38;99187.38;5051964;28;19919;-77
2023/05/29 02:48:43;;;;;;;;;;;;;;;18.35;71.75;99187.38;5051795;28;19913;-76
2023/05/29 02:51:09;;;;;;;;;;;;;;;18.36;72.37;99189.00;5051704;28;20390;-76
2023/05/29 02:53:34;;;;;;;;;;;;;;;18.36;72.41;99194.34;5051700;28;19909;-76
2023/05/29 02:56:00;;;;;;;;;;;;;;;18.35;72.79;99200.75;5051623;28;20381;-76
2023/05/29 02:58:27;;;;;;;;;;;;;;;18.39;72.65;99201.06;5051685;28;20004;-76
2023/05/29 03:00:52;;;;;;;;;;;;;;;18.40;72.37;99203.50;5051456;28;19901;-77
2023/05/29 03:03:17;;;;;;;;;;;;;;;18.37;73.07;99205.84;5051543;28;19916;-76
2023/05/29 03:05:43;;;;;;;;;;;;;;;18.35;73.21;99210.63;5050291;28;20393;-75
2023/05/29 03:08:08;;;;;;;;;;;;;;;18.36;72.70;99201.53;5051809;28;19909;-75
2023/05/29 03:10:33;;;;;;;;;;;;;;;18.35;72.33;99206.09;5051638;28;19915;-76
2023/05/29 03:12:58;;;;;;;;;;;;;;;18.35;72.58;99216.78;5051554;28;19918;-75
2023/05/29 03:15:24;;;;;;;;;;;;;;;18.35;72.71;99218.63;5051789;28;20309;-75
2023/05/29 03:17:49;;;;;;;;;;;;;;;18.37;72.70;99221.88;5051850;28;19908;-76
2023/05/29 03:20:15;;;;;;;;;;;;;;;18.40;72.82;99218.75;5052146;28;19944;-77
2023/05/29 03:22:40;;;;;;;;;;;;;;;18.40;71.98;99224.09;5051843;28;19962;-76
2023/05/29 03:25:06;;;;;;;;;;;;;;;18.38;72.03;99227.00;5051796;28;19908;-77
2023/05/29 03:27:31;;;;;;;;;;;;;;;18.38;72.54;99218.97;5051551;28;19962;-76
2023/05/29 03:29:57;;;;;;;;;;;;;;;18.42;72.51;99221.97;5051288;28;20381;-76
2023/05/29 03:32:23;;;;;;;;;;;;;;;18.40;72.26;99224.91;5051258;28;19912;-76
2023/05/29 03:34:48;;;;;;;;;;;;;;;18.41;72.15;99223.03;5051734;28;19916;-76
2023/05/29 03:37:14;;;;;;;;;;;;;;;18.40;72.13;99227.56;5050072;28;19908;-76
2023/05/29 03:39:39;;;;;;;;;;;;;;;18.41;72.32;99223.03;5051404;28;19909;-76
2023/05/29 03:42:04;;;;;;;;;;;;;;;18.42;72.49;99230.81;5054330;28;19931;-75
2023/05/29 03:44:30;;;;;;;;;;;;;;;18.43;72.53;99235.13;5055154;28;19913;-76
2023/05/29 03:46:55;;;;;;;;;;;;;;;18.46;72.72;99241.84;5055200;28;20305;-76
2023/05/29 03:49:20;;;;;;;;;;;;;;;18.49;71.55;99237.88;5053930;28;19919;-76
2023/05/29 03:51:45;;;;;;;;;;;;;;;18.48;72.19;99236.25;5055122;28;19948;-75
2023/05/29 03:54:11;;;;;;;;;;;;;;;18.48;72.21;99239.75;5053626;28;19916;-76
2023/05/29 03:56:36;;;;;;;;;;;;;;;18.49;72.08;99236.03;5055131;28;19909;-76
2023/05/29 03:59:02;;;;;;;;;;;;;;;18.52;72.23;99232.06;5054797;28;20412;-77
2023/05/29 04:01:27;;;;;;;;;;;;;;;18.56;72.15;99234.03;5054589;28;19948;-76
2023/05/29 04:03:53;;;;;;;;;;;;;;;18.57;72.10;99227.63;5054903;28;19963;-75
2023/05/29 04:06:18;;;;;;;;;;;;;;;18.59;72.09;99220.22;5054614;28;20011;-76
2023/05/29 04:08:43;;;;;;;;;;;;;;;18.63;72.09;99228.59;5054833;28;19966;-75
2023/05/29 04:11:08;;;;;;;;;;;;;;;18.62;71.68;99225.13;5054528;28;19935;-76
2023/05/29 04:13:34;;;;;;;;;;;;;;;18.63;72.01;99226.75;5054699;28;19909;-75
2023/05/29 04:15:59;;;;;;;;;;;;;;;18.68;71.75;99218.00;5054529;28;20362;-76
2023/05/29 04:18:25;;;;;;;;;;;;;;;18.68;71.57;99228.69;5054532;28;19908;-76
2023/05/29 04:20:50;;;;;;;;;;;;;;;18.69;71.30;99235.69;5054499;28;20378;-76
2023/05/29 04:23:16;;;;;;;;;;;;;;;18.71;71.13;99228.22;5054382;28;20004;-76
2023/05/29 04:25:41;;;;;;;;;;;;;;;18.72;71.54;99228.00;5054334;28;20374;-75
2023/05/29 04:28:06;;;;;;;;;;;;;;;18.75;71.06;99234.72;5054133;28;20294;-76
2023/05/29 04:30:33;;;;;;;;;;;;;;;18.78;71.02;99241.47;5054247;28;19908;-76
2023/05/29 04:32:59;;;;;;;;;;;;;;;18.81;71.30;99230.28;5054136;28;20459;-77
2023/05/29 04:35:24;;;;;;;;;;;;;;;18.84;71.15;99241.31;5053659;28;19951;-77
2023/05/29 04:37:49;;;;;;;;;;;;;;;18.83;71.03;99233.53;5054300;28;19917;-76
2023/05/29 04:40:17;;;;;;;;;;;;;;;18.82;71.82;99231.91;5054161;28;20054;-76
2023/05/29 04:42:44;;;;;;;;;;;;;;;18.84;71.04;99238.63;5054049;28;19912;-76
2023/05/29 04:45:10;;;;;;;;;;;;;;;18.81;71.30;99236.44;5054027;28;20333;-76
2023/05/29 04:47:36;;;;;;;;;;;;;;;18.83;71.05;99236.22;5054019;28;19909;-77
2023/05/29 04:50:02;;;;;;;;;;;;;;;18.85;70.92;99242.94;5053779;28;20283;-76
2023/05/29 04:52:27;;;;;;;;;;;;;;;18.83;71.81;99242.38;5051249;28;19935;-75
2023/05/29 04:54:53;;;;;;;;;;;;;;;18.81;71.48;99252.50;5053499;28;19916;-77
2023/05/29 04:57:18;;;;;;;;;;;;;;;18.83;71.23;99265.63;5053650;28;19913;-76
2023/05/29 04:59:44;;;;;;;;;;;;;;;18.86;70.90;99267.81;5053664;28;20345;-76
2023/05/29 05:02:09;;;;;;;;;;;;;;;18.88;71.10;99271.88;5053769;28;19962;-76
2023/05/29 05:04:35;;;;;;;;;;;;;;;18.86;70.86;99274.00;5053773;28;19909;-77
2023/05/29 05:07:00;;;;;;;;;;;;;;;18.83;71.08;99273.66;5054336;28;20301;-75
2023/05/29 05:09:26;;;;;;;;;;;;;;;18.84;71.16;99277.94;5054223;28;19916;-76
2023/05/29 05:11:51;;;;;;;;;;;;;;;18.87;70.99;99267.59;5054079;28;19913;-76
2023/05/29 05:14:16;;;;;;;;;;;;;;;18.88;71.34;99279.91;5053709;28;19909;-75
2023/05/29 05:16:42;;;;;;;;;;;;;;;18.92;71.09;99283.72;5053576;28;19908;-75
2023/05/29 05:19:07;;;;;;;;;;;;;;;18.98;71.04;99279.28;5053708;28;19995;-75
2023/05/29 05:21:32;;;;;;;;;;;;;;;19.03;70.99;99280.19;5053460;28;20370;-75
2023/05/29 05:23:58;;;;;;;;;;;;;;;19.05;70.45;99277.28;5053095;28;19912;-75
2023/05/29 05:26:23;;;;;;;;;;;;;;;19.07;70.77;99280.53;5053075;28;19938;-75
2023/05/29 05:28:48;;;;;;;;;;;;;;;19.10;70.32;99274.69;5053023;28;19923;-75
2023/05/29 05:31:13;;;;;;;;;;;;;;;19.13;69.94;99268.88;5053084;28;20376;-74
2023/05/29 05:33:39;;;;;;;;;;;;;;;19.18;69.90;99278.84;5053519;28;19909;-73
2023/05/29 05:36:04;;;;;;;;;;;;;;;19.21;69.44;99281.84;5053347;28;19995;-76
2023/05/29 05:38:30;;;;;;;;;;;;;;;19.27;69.58;99280.09;5053071;28;19908;-76
2023/05/29 05:40:55;;;;;;;;;;;;;;;19.32;69.52;99280.19;5052926;28;19959;-75
2023/05/29 05:43:21;;;;;;;;;;;;;;;19.38;69.43;99273.88;5064086;28;20366;-76
2023/05/29 05:45:47;;;;;;;;;;;;;;;19.40;69.00;99279.00;5053835;28;19919;-76
2023/05/29 05:48:12;;;;;;;;;;;;;;;19.40;68.76;99274.47;5063276;28;19909;-78
2023/05/29 05:50:37;;;;;;;;;;;;;;;19.44;69.13;99283.63;5052692;28;19909;-77
2023/05/29 05:53:02;;;;;;;;;;;;;;;19.44;68.80;99278.28;5069477;28;20384;-77
2023/05/29 05:55:28;;;;;;;;;;;;;;;19.43;69.18;99292.72;5072626;28;19908;-78
2023/05/29 05:57:53;;;;;;;;;;;;;;;19.45;69.30;99287.94;5071393;28;19913;-77
2023/05/29 06:00:19;;;;;;;;;;;;;;;19.52;68.88;99288.63;5071782;28;19979;-75
2023/05/29 06:02:44;;;;;;;;;;;;;;;19.55;68.88;99285.44;5055980;28;19916;-75
2023/05/29 06:05:11;;;;;;;;;;;;;;;19.57;68.45;99290.56;5055582;28;19966;-77
2023/05/29 06:07:36;;;;;;;;;;;;;;;19.62;68.17;99293.34;5052601;28;19978;-78
2023/05/29 06:10:03;;;;;;;;;;;;;;;19.61;68.32;99289.84;5052265;28;20369;-74
2023/05/29 06:12:28;;;;;;;;;;;;;;;19.63;68.20;99294.94;5052235;28;19912;-74
2023/05/29 06:14:53;;;;;;;;;;;;;;;19.62;68.59;99291.47;5052122;28;19923;-77
2023/05/29 06:17:19;;;;;;;;;;;;;;;19.62;68.56;99291.47;5052259;28;19916;-75
2023/05/29 06:19:44;;;;;;;;;;;;;;;19.66;68.10;99297.16;5052227;28;19913;-75
2023/05/29 06:22:09;;;;;;;;;;;;;;;19.66;68.13;99289.94;5052298;28;19966;-75
2023/05/29 06:24:35;;;;;;;;;;;;;;;19.66;68.31;99294.47;5052022;28;19993;-77
2023/05/29 06:27:01;;;;;;;;;;;;;;;19.71;67.75;99294.53;5051808;28;20315;-76
2023/05/29 06:29:26;;;;;;;;;;;;;;;19.70;68.22;99294.78;5051578;28;19917;-74
2023/05/29 06:31:51;;;;;;;;;;;;;;;19.75;68.05;99301.03;5050519;28;19912;-76
2023/05/29 06:34:17;;;;;;;;;;;;;;;19.82;68.34;99298.19;5051887;28;19909;-76
2023/05/29 06:36:42;;;;;;;;;;;;;;;19.84;68.08;99293.41;5052449;28;19948;-77
2023/05/29 06:39:07;;;;;;;;;;;;;;;19.86;67.77;99288.63;5052971;28;20374;-75
2023/05/29 06:41:33;;;;;;;;;;;;;;;19.86;67.56;99297.47;5051026;28;20003;-77
2023/05/29 06:43:58;;;;;;;;;;;;;;;19.86;67.83;99302.81;5052028;28;19912;-76
2023/05/29 06:46:23;;;;;;;;;;;;;;;19.88;67.53;99297.22;5052196;28;20382;-78
2023/05/29 06:48:48;;;;;;;;;;;;;;;19.91;67.48;99297.53;5052180;28;19909;-76
2023/05/29 06:51:15;;;;;;;;;;;;;;;19.91;67.58;99299.41;5051714;28;19912;-76
2023/05/29 06:53:41;;;;;;;;;;;;;;;19.93;67.62;99291.94;5051576;28;19908;-76
2023/05/29 06:56:07;;;;;;;;;;;;;;;19.93;67.35;99297.31;5051783;28;19907;-75
2023/05/29 06:58:32;;;;;;;;;;;;;;;19.93;66.93;99299.97;5051597;28;20309;-76
2023/05/29 07:00:58;;;;;;;;;;;;;;;19.87;66.82;99301.78;5051660;28;19995;-75
2023/05/29 07:03:25;;;;;;;;;;;;;;;19.83;66.93;99300.63;5051633;28;19909;-76
2023/05/29 07:05:50;;;;;;;;;;;;;;;19.82;67.50;99295.53;5051649;28;19908;-76
2023/05/29 07:08:15;;;;;;;;;;;;;;;19.84;66.93;99296.09;5051482;28;19916;-76
2023/05/29 07:10:40;;;;;;;;;;;;;;;19.91;67.05;99292.19;5051492;28;19919;-76
2023/05/29 07:13:06;;;;;;;;;;;;;;;19.93;66.59;99289.25;5051405;28;20440;-77
2023/05/29 07:15:32;;;;;;;;;;;;;;;19.95;66.76;99290.63;5050266;28;19909;-77
2023/05/29 07:17:57;;;;;;;;;;;;;;;19.96;66.45;99286.09;5055217;28;19948;-77
2023/05/29 07:20:22;;;;;;;;;;;;;;;20.06;66.46;99282.75;5056593;28;19935;-76
2023/05/29 07:22:47;;;;;;;;;;;;;;;20.14;66.67;99285.84;5055066;28;20381;-77
2023/05/29 07:25:13;;;;;;;;;;;;;;;20.21;66.25;99278.44;5055220;28;19908;-77
2023/05/29 07:27:38;;;;;;;;;;;;;;;20.34;65.93;99292.56;5055247;28;20413;-77
2023/05/29 07:30:05;;;;;;;;;;;;;;;20.41;65.60;99285.16;5061075;28;20415;-76
2023/05/29 07:32:30;;;;;;;;;;;;;;;20.50;65.42;99284.50;5075116;28;19923;-76
2023/05/29 07:34:56;;;;;;;;;;;;;;;20.56;65.23;99280.81;5075117;28;19908;-77
2023/05/29 07:37:21;;;;;;;;;;;;;;;20.61;64.50;99290.78;5075049;28;19916;-76
2023/05/29 07:39:46;;;;;;;;;;;;;;;20.62;64.29;99297.78;5075450;28;19995;-76
2023/05/29 07:42:11;;;;;;;;;;;;;;;20.60;63.82;99292.66;5073382;28;19912;-76
2023/05/29 07:44:37;;;;;;;;;;;;;;;20.62;63.75;99292.41;5060921;28;19979;-77
2023/05/29 07:47:02;;;;;;;;;;;;;;;20.71;63.71;99300.84;5074996;28;19909;-76
2023/05/29 07:49:27;;;;;;;;;;;;;;;20.81;63.56;99296.44;5074869;28;19994;-76
2023/05/29 07:51:53;;;;;;;;;;;;;;;20.93;63.67;99301.66;5075138;28;19912;-76
2023/05/29 07:54:20;;;;;;;;;;;;;;;21.01;63.34;99293.16;5062233;28;19966;-75
2023/05/29 07:56:45;;;;;;;;;;;;;;;20.86;63.24;99275.03;5075014;28;20325;-76
2023/05/29 07:59:11;;;;;;;;;;;;;;;21.07;62.80;99307.44;5063850;28;19908;-77
2023/05/29 08:01:37;;;;;;;;;;;;;;;21.13;63.03;99301.06;5058554;28;19987;-77
2023/05/29 08:04:02;;;;;;;;;;;;;;;21.16;62.69;99301.38;5056697;28;20317;-76
2023/05/29 08:06:27;;;;;;;;;;;;;;;21.20;62.58;99299.00;5054492;28;19912;-77
2023/05/29 08:08:53;;;;;;;;;;;;;;;21.29;62.46;99297.50;5054628;28;20000;-76
2023/05/29 08:11:19;;;;;;;;;;;;;;;21.35;61.89;99295.69;5056348;28;19917;-76
2023/05/29 08:13:44;;;;;;;;;;;;;;;21.41;62.41;99287.41;5067799;28;19973;-76
2023/05/29 08:16:10;;;;;;;;;;;;;;;21.50;62.39;99293.94;5060392;28;19971;-75
2023/05/29 08:18:36;;;;;;;;;;;;;;;21.59;61.62;99288.13;5067987;28;20530;-76
2023/05/29 08:21:01;;;;;;;;;;;;;;;21.57;60.46;99280.34;5068318;28;19919;-75
2023/05/29 08:23:27;;;;;;;;;;;;;;;21.49;61.21;99292.31;5065992;28;19908;-76
2023/05/29 08:25:52;;;;;;;;;;;;;;;21.56;60.78;99281.41;5061762;28;19912;-76
2023/05/29 08:28:17;;;;;;;;;;;;;;;21.62;60.95;99288.44;5062966;28;20022;-77
2023/05/29 08:30:42;;;;;;;;;;;;;;;21.69;60.98;99286.34;5065472;28;19912;-76
2023/05/29 08:33:08;;;;;;;;;;;;;;;21.73;60.99;99279.38;5056595;28;20406;-76
2023/05/29 08:35:33;;;;;;;;;;;;;;;21.80;60.29;99279.97;5056599;28;19935;-76
2023/05/29 08:37:59;;;;;;;;;;;;;;;22.05;60.32;99276.69;5073075;28;19943;-77
2023/05/29 08:40:24;;;;;;;;;;;;;;;22.23;59.49;99275.44;5053727;28;20427;-75
2023/05/29 08:42:56;;;;;;;;;;;;;;;22.27;59.24;99281.91;5053805;28;20368;-75
2023/05/29 08:45:22;;;;;;;;;;;;;;;22.16;59.65;99280.25;5053695;28;19913;-76
2023/05/29 08:47:51;;;;;;;;;;;;;;;22.14;59.77;99277.00;5070300;28;20464;-76
2023/05/29 08:50:17;;;;;;;;;;;;;;;22.28;59.94;99263.91;5069089;28;19931;-75
2023/05/29 08:52:43;;;;;;;;;;;;;;;22.32;59.56;99263.16;5059993;28;19917;-76
2023/05/29 08:55:09;;;;;;;;;;;;;;;22.48;58.87;99256.75;5055591;28;19919;-76
2023/05/29 08:57:36;;;;;;;;;;;;;;;22.57;59.13;99253.56;5070261;28;20326;-75
2023/05/29 09:00:04;;;;;;;;;;;;;;;22.48;59.17;99248.69;5053743;28;19912;-76
2023/05/29 09:02:30;;;;;;;;;;;;;;;22.35;59.12;99259.13;5054941;28;19927;-76
2023/05/29 09:04:56;;;;;;;;;;;;;;;22.28;58.83;99250.44;5064641;28;20309;-76
2023/05/29 09:07:22;;;;;;;;;;;;;;;22.47;58.56;99248.97;5073240;28;19909;-76
2023/05/29 09:09:48;;;;;;;;;;;;;;;22.75;58.88;99237.75;5071733;28;19919;-77
2023/05/29 09:12:14;;;;;;;;;;;;;;;22.95;57.59;99237.03;5061923;28;19920;-74
2023/05/29 09:14:40;;;;;;;;;;;;;;;22.92;55.59;99239.44;5071470;28;20428;-76
2023/05/29 09:17:06;;;;;;;;;;;;;;;23.09;57.46;99235.47;5073290;28;19927;-76
2023/05/29 09:19:35;;;;;;;;;;;;;;;23.33;56.70;99229.56;5067522;28;19916;-75
2023/05/29 09:22:04;;;;;;;;;;;;;;;23.44;56.75;99237.38;5059619;28;19959;-75
2023/05/29 09:24:31;;;;;;;;;;;;;;;23.60;56.53;99238.19;5065094;28;19916;-75
2023/05/29 09:26:58;;;;;;;;;;;;;;;23.75;54.92;99223.91;5065394;28;20007;-75
2023/05/29 09:29:24;;;;;;;;;;;;;;;24.00;55.77;99221.19;5067865;28;19920;-75
2023/05/29 09:31:50;;;;;;;;;;;;;;;24.12;54.88;99215.47;5065315;28;19922;-77
2023/05/29 09:34:15;;;;;;;;;;;;;;;24.26;54.26;99227.31;5071374;28;19920;-76
2023/05/29 09:36:41;;;;;;;;;;;;;;;24.41;53.95;99215.69;5064823;28;19909;-75
2023/05/29 09:39:09;;;;;;;;;;;;;;;24.61;54.07;99225.59;5071263;28;20373;-75
2023/05/29 09:41:44;;;;;;;;;;;;;;;24.84;51.65;99222.22;5056510;28;19909;-74
2023/05/29 09:44:13;;;;;;;;;;;;;;;24.98;52.88;99219.75;5051677;28;19909;-75
2023/05/29 09:46:39;;;;;;;;;;;;;;;25.05;52.67;99216.72;5058107;28;19905;-75
2023/05/29 09:49:11;;;;;;;;;;;;;;;25.31;50.12;99213.59;5073071;28;19908;-76
2023/05/29 09:51:36;;;;;;;;;;;;;;;25.39;49.71;99219.47;5072869;28;19982;-75
2023/05/29 09:54:12;;;;;;;;;;;;;;;25.29;52.05;99217.66;5071488;28;20309;-75
2023/05/29 09:56:38;;;;;;;;;;;;;;;24.93;49.18;99217.03;5072833;28;19951;-76
2023/05/29 09:59:03;;;;;;;;;;;;;;;24.63;50.38;99215.34;5074006;28;19912;-75
2023/05/29 10:01:29;;;;;;;;;;;;;;;24.36;51.92;99216.50;5072387;28;20401;-76
2023/05/29 10:03:54;;;;;;;;;;;;;;;24.35;53.12;99217.59;5071371;28;19908;-74
2023/05/29 10:06:20;;;;;;;;;;;;;;;24.19;52.63;99215.19;5072066;28;19916;-74
2023/05/29 10:08:50;;;;;;;;;;;;;;;24.05;52.81;99207.69;5072117;28;19943;-76
2023/05/29 10:11:19;;;;;;;;;;;;;;;24.14;53.47;99221.41;5072029;28;20396;-75
2023/05/29 10:13:48;;;;;;;;;;;;;;;24.27;52.42;99218.16;5072028;28;19998;-75
2023/05/29 10:16:14;;;;;;;;;;;;;;;24.31;51.16;99207.63;5052108;28;19900;-76
2023/05/29 10:18:42;;;;;;;;;;;;;;;24.37;51.22;99218.13;5051763;28;19908;-75
2023/05/29 10:21:10;;;;;;;;;;;;;;;24.62;51.33;99219.13;5062082;28;19908;-77
2023/05/29 10:23:37;;;;;;;;;;;;;;;24.56;51.60;99222.94;5071861;28;19904;-76
2023/05/29 10:26:06;;;;;;;;;;;;;;;24.39;51.61;99223.25;5071942;28;19909;-76
2023/05/29 10:28:33;;;;;;;;;;;;;;;24.22;52.65;99223.53;5071805;28;19938;-76
2023/05/29 10:31:04;;;;;;;;;;;;;;;23.98;52.86;99225.22;5068003;28;19912;-75
2023/05/29 10:33:32;;;;;;;;;;;;;;;23.84;52.36;99224.19;5062657;28;20000;-76
2023/05/29 10:35:57;;;;;;;;;;;;;;;23.73;53.74;99217.97;5071831;28;19947;-76
2023/05/29 10:38:24;;;;;;;;;;;;;;;23.66;53.27;99220.13;5066447;28;19915;-76
2023/05/29 10:40:49;;;;;;;;;;;;;;;23.61;54.37;99220.16;5071633;28;19908;-74
2023/05/29 10:43:34;;;;;;;;;;;;;;;23.65;54.12;99226.59;5071410;28;19915;-74
2023/05/29 10:46:00;;;;;;;;;;;;;;;23.67;53.88;99219.88;5069239;28;19915;-77
2023/05/29 10:48:28;;;;;;;;;;;;;;;23.79;53.86;99226.88;5071169;28;19908;-76
2023/05/29 10:50:54;;;;;;;;;;;;;;;23.77;52.74;99235.22;5050841;28;19958;-76
2023/05/29 10:53:23;;;;;;;;;;;;;;;23.67;53.93;99252.22;5051724;28;19999;-76
2023/05/29 10:55:50;;;;;;;;;;;;;;;23.55;54.56;99278.63;5067763;28;19955;-77
2023/05/29 10:58:19;;;;;;;;;;;;;;;23.24;54.88;99287.72;5071298;28;19954;-75
2023/05/29 11:00:46;;;;;;;;;;;;;;;22.82;55.81;99283.28;5071503;28;19913;-75
2023/05/29 11:03:14;;;;;;;;;;;;;;;22.19;56.95;99291.28;5071428;28;20378;-75
2023/05/29 11:05:58;;;;;;;;;;;;;;;21.69;58.07;99280.97;5071224;28;19913;-75
2023/05/29 11:08:46;;;;;;;;;;;;;;;21.19;59.87;99282.06;5060820;28;19919;-76
2023/05/29 11:11:12;;;;;;;;;;;;;;;20.73;61.04;99283.44;5053424;28;20012;-76
2023/05/29 11:13:37;;;;;;;;;;;;;;;20.46;63.08;99279.88;5065029;28;20427;-73
2023/05/29 11:16:15;;;;;;;;;;;;;;;20.23;63.23;99272.84;5050025;28;19948;-75
2023/05/29 11:18:45;;;;;;;;;;;;;;;20.07;62.87;99263.78;5051315;28;19908;-77
2023/05/29 11:21:25;;;;;;;;;;;;;;;19.88;66.66;99281.97;5054876;28;20378;-73
2023/05/29 11:23:52;;;;;;;;;;;;;;;19.76;67.50;99307.22;5062841;28;20422;-77
2023/05/29 11:26:19;;;;;;;;;;;;;;;19.67;67.42;99304.13;5067306;28;19912;-75
2023/05/29 11:28:45;;;;;;;;;;;;;;;19.54;66.56;99310.59;5053803;28;20357;-72
2023/05/29 11:31:12;;;;;;;;;;;;;;;19.47;67.22;99323.31;5069560;28;19952;-76
2023/05/29 11:33:39;;;;;;;;;;;;;;;19.47;68.37;99335.88;5071155;28;19909;-75
2023/05/29 11:36:06;;;;;;;;;;;;;;;19.47;67.00;99319.81;5071112;28;19961;-75
2023/05/29 11:38:31;;;;;;;;;;;;;;;19.49;68.11;99320.38;5068699;28;19912;-75
2023/05/29 11:40:58;;;;;;;;;;;;;;;19.50;67.84;99317.47;5068921;28;20381;-74
2023/05/29 11:43:24;;;;;;;;;;;;;;;19.53;68.78;99316.22;5071088;28;20297;-77
2023/05/29 11:45:49;;;;;;;;;;;;;;;19.46;68.52;99304.81;5066503;28;19912;-76
2023/05/29 11:48:15;;;;;;;;;;;;;;;19.41;69.64;99302.84;5069484;28;19908;-75
2023/05/29 11:50:40;;;;;;;;;;;;;;;19.44;70.35;99302.38;5058565;28;19920;-76
2023/05/29 11:53:06;;;;;;;;;;;;;;;19.43;68.68;99298.06;5064758;28;19916;-73
2023/05/29 11:55:31;;;;;;;;;;;;;;;19.40;68.96;99293.19;5069376;28;19912;-76
2023/05/29 11:57:58;;;;;;;;;;;;;;;19.43;68.82;99287.34;5071142;28;19909;-74
2023/05/29 12:00:24;;;;;;;;;;;;;;;19.41;68.38;99291.34;5070797;28;19908;-74
2023/05/29 12:02:50;;;;;;;;;;;;;;;19.35;69.85;99288.56;5071743;28;19915;-76
2023/05/29 12:05:18;;;;;;;;;;;;;;;19.28;70.15;99289.75;5074683;28;19908;-75
2023/05/29 12:08:01;;;;;;;;;;;;;;;19.29;70.06;99294.84;5074375;28;19916;-77
2023/05/29 12:10:27;;;;;;;;;;;;;;;19.29;69.25;99286.81;5060099;28;20401;-75
2023/05/29 12:12:53;;;;;;;;;;;;;;;19.31;70.08;99292.75;5054535;28;19913;-76
2023/05/29 12:15:19;;;;;;;;;;;;;;;19.35;69.70;99298.47;5067346;28;19966;-76
2023/05/29 12:17:51;;;;;;;;;;;;;;;19.33;67.57;99298.69;5074548;28;19912;-75
2023/05/29 12:20:17;;;;;;;;;;;;;;;19.31;69.80;99298.09;5067716;28;19991;-76
2023/05/29 12:22:43;;;;;;;;;;;;;;;19.35;69.77;99296.59;5055437;28;19909;-76
2023/05/29 12:25:09;;;;;;;;;;;;;;;19.39;69.82;99291.56;5064089;28;19920;-75
2023/05/29 12:27:41;;;;;;;;;;;;;;;19.38;69.72;99292.63;5068191;28;19916;-74
2023/05/29 12:30:07;;;;;;;;;;;;;;;19.41;68.85;99288.66;5054110;28;20070;-75
2023/05/29 12:32:39;;;;;;;;;;;;;;;19.45;69.58;99285.25;5072480;28;19984;-74
2023/05/29 12:35:17;;;;;;;;;;;;;;;19.49;70.65;99274.88;5070600;28;19922;-76
2023/05/29 12:37:43;;;;;;;;;;;;;;;19.52;70.56;99277.06;5072822;28;20005;-75
2023/05/29 12:40:10;;;;;;;;;;;;;;;19.54;71.24;99280.34;5071122;28;19982;-75
2023/05/29 12:42:37;;;;;;;;;;;;;;;19.59;69.97;99275.88;5053549;28;19953;-75